M I D A S
Marine Information and Data Acquisition System
Tripno 69 of the Zeeleeuw from 2001-11-30 09:45:00 to 2001-11-30 15:10:00
Back to CruiseResearch ActivitiesStationsMapUnderway DataData graphs

EquipmentUnitsComment
TimeDGPSUTC
LatitudeDGPSDM.mWGS84
LongitudeDGPSDM.mWGS84
TemperatureSBE03/SBE38deg celciusITS90
ConductivitySBE21S/mITS90
SalinitySBE21 Practical Salinity Units
ChlorophylAChelsea fluorimeterg/lCalibrated in Aceton
Missing or incorrect values are displayed as -999
Sea surface data collected by the RV Zeeleeuw from 2001-11-30 09:45:00 to 2001-11-30 15:10:00
Time Latitude Longitude Temperature Conductivity Salinity ChlorophylA
2001-11-30 09:46:03 51°20.166 2°59.655 19.185957 0.004317 0.02692  
2001-11-30 09:47:03 51°20.362 2°59.844 19.290555 0.004317 0.02692  
2001-11-30 09:48:02 51°20.557 3°0.027 19.135833 0.004317 0.02692  
2001-11-30 09:49:03 51°20.758 3°0.216 18.707778 0.004317 0.02692  
2001-11-30 09:50:03 51°20.956 3°0.399 19.454519 0.004317 0.02692  
2001-11-30 09:51:03 51°21.153 3°0.585 18.990867 0.004317 0.02692  
2001-11-30 09:52:03 51°21.349 3°0.772 19.132023 0.004317 0.02692  
2001-11-30 09:53:04 51°21.548 3°0.96 18.866535 0.004317 0.02692  
2001-11-30 09:54:02 51°21.739 3°1.129 19.37973 0.004317 0.02692  
2001-11-30 09:55:04 51°21.951 3°1.286 19.083745 0.004317 0.02692  
2001-11-30 09:56:04 51°22.156 3°1.443 19.060865 0.004317 0.026919  
2001-11-30 09:57:03 51°22.357 3°1.599 19.000636 0.004317 0.026919  
2001-11-30 09:58:03 51°22.564 3°1.75 19.145705 0.004317 0.026919  
2001-11-30 09:59:03 51°22.771 3°1.902 19.320429 0.004317 0.026919  
2001-11-30 10:00:03 51°22.976 3°2.06 18.856047 0.004317 0.026919  
2001-11-30 10:01:03 51°23.183 3°2.219 19.601215 0.004317 0.026919  
2001-11-30 10:02:03 51°23.389 3°2.385 19.37087 0.004317 0.026919  
2001-11-30 10:03:03 51°23.595 3°2.55 19.713687 0.004317 0.026919  
2001-11-30 10:04:03 51°23.803 3°2.716 19.388506 0.004317 0.026919  
2001-11-30 10:05:03 51°24.011 3°2.884 19.163684 0.004317 0.026919  
2001-11-30 10:06:03 51°24.219 3°3.055 19.270891 0.004317 0.026919  
2001-11-30 10:07:03 51°24.433 3°3.2 19.447546 0.004317 0.026919  
2001-11-30 10:08:03 51°24.643 3°3.36 19.24754 0.004317 0.026919  
2001-11-30 10:09:03 51°24.851 3°3.519 19.462471 0.004317 0.026918  
2001-11-30 10:10:03 51°25.056 3°3.686 19.038183 0.004317 0.026918  
2001-11-30 10:11:03 51°25.26 3°3.854 19.549065 0.004317 0.026918  
2001-11-30 10:12:03 51°25.466 3°4.009 19.624692 0.004317 0.026918  
2001-11-30 10:13:03 51°25.67 3°4.161 19.864464 0.004317 0.026918  
2001-11-30 10:14:03 51°25.871 3°4.327 19.803664 0.004317 0.026918  
2001-11-30 10:15:03 51°26.071 3°4.492 19.186694 0.004317 0.026918  
2001-11-30 10:16:03 51°26.189 3°4.773 19.434861 0.004317 0.026918  
2001-11-30 10:17:03 51°26.11 3°5.125 20.070968 0.004317 0.026918  
2001-11-30 10:18:04 51°26.008 3°5.483 17.933651 0.004317 0.026914  
2001-11-30 10:19:03 51°25.91 3°5.832 17.958946 0.004317 0.026917  
2001-11-30 10:20:03 51°25.802 3°6.179 17.940153 0.004317 0.026918  
2001-11-30 10:21:03 51°25.666 3°6.504 17.944904 0.004317 0.026918  
2001-11-30 10:22:03 51°25.535 3°6.835 17.955322 0.004317 0.026918  
2001-11-30 10:23:04 51°25.396 3°7.167 18.046721 0.004317 0.026917  
2001-11-30 10:24:03 51°25.262 3°7.489 18.015171 0.004317 0.026917  
2001-11-30 10:25:04 51°25.127 3°7.824 18.023247 0.004317 0.026918  
2001-11-30 10:26:04 51°24.999 3°8.163 18.051797 0.004317 0.026918  
2001-11-30 10:27:03 51°24.874 3°8.503 18.091938 0.004317 0.026918  
2001-11-30 10:28:03 51°24.754 3°8.855 18.076924 0.004317 0.026918  
2001-11-30 10:29:04 51°24.633 3°9.217 18.093518 0.004317 0.026918  
2001-11-30 10:30:03 51°24.558 3°9.588 18.070019 0.004317 0.026918  
2001-11-30 10:31:03 51°24.577 3°9.993 18.199103 0.004317 0.026918  
2001-11-30 10:32:04 51°24.63 3°10.396 18.148346 0.004317 0.026918  
2001-11-30 10:33:04 51°24.749 3°10.749 18.132513 0.004317 0.026917  
2001-11-30 10:34:04 51°24.93 3°10.985 18.114889 0.004317 0.026918  
2001-11-30 10:35:03 51°25.09 3°10.838 18.273179 0.004317 0.026918  
2001-11-30 10:36:03 51°25.201 3°10.578 18.293333 0.004317 0.026917  
2001-11-30 10:37:04 51°25.33 3°10.326 18.248579 0.004317 0.026917  
2001-11-30 10:38:03 51°25.454 3°10.086 18.242604 0.004317 0.026917  
2001-11-30 10:39:03 51°25.58 3°9.843 18.296568 0.004317 0.026917  
2001-11-30 10:40:03 51°25.708 3°9.599 18.284211 0.004317 0.026917  
2001-11-30 10:41:03 51°25.836 3°9.354 18.310166 0.004317 0.026917  
2001-11-30 10:42:03 51°25.967 3°9.109 18.338929 0.004317 0.026917  
2001-11-30 10:43:03 51°26.098 3°8.86 18.363332 0.004317 0.026917  
2001-11-30 10:44:04 51°26.231 3°8.606 18.38785 0.004317 0.026918  
2001-11-30 10:45:03 51°26.355 3°8.351 18.442942 0.004317 0.026918  
2001-11-30 10:46:03 51°26.48 3°8.092 18.439094 0.004317 0.026918  
2001-11-30 10:47:04 51°26.608 3°7.83 18.467267 0.004317 0.026918  
2001-11-30 10:48:03 51°26.731 3°7.577 18.562786 0.004317 0.026918  
2001-11-30 10:49:04 51°26.86 3°7.313 18.556384 0.004317 0.026918  
2001-11-30 10:50:03 51°26.982 3°7.055 18.584757 0.004317 0.026918  
2001-11-30 10:51:04 51°27.11 3°6.79 18.645222 0.004317 0.026918  
2001-11-30 10:52:03 51°27.233 3°6.532 18.639363 0.004317 0.026918  
2001-11-30 10:53:03 51°27.36 3°6.269 18.633092 0.004317 0.026918  
2001-11-30 10:54:03 51°27.518 3°6.083 18.650049 0.004317 0.026918  
2001-11-30 10:55:04 51°27.744 3°6.066 20.534996 0.004317 0.02692  
2001-11-30 10:56:03 51°27.924 3°6.21 19.693735 0.004317 0.026918  
2001-11-30 10:57:04 51°28.009 3°6.576 19.946312 0.004317 0.026918  
2001-11-30 10:58:04 51°28.12 3°6.931 20.438188 0.004317 0.026918  
2001-11-30 10:59:04 51°28.225 3°7.296 20.47417 0.004317 0.026919  
2001-11-30 11:00:04 51°28.335 3°7.653 20.249817 0.004317 0.026919  
2001-11-30 11:01:03 51°28.437 3°8.013 20.009052 0.004317 0.026919  
2001-11-30 11:02:04 51°28.545 3°8.386 20.077961 0.004317 0.026919  
2001-11-30 11:03:04 51°28.654 3°8.747 20.204845 0.004317 0.026919  
2001-11-30 11:04:03 51°28.762 3°9.099 20.365042 0.004317 0.026919  
2001-11-30 11:05:04 51°28.872 3°9.465 20.209162 0.004317 0.026919  
2001-11-30 11:06:04 51°28.964 3°9.835 20.168523 0.004317 0.026919  
2001-11-30 11:07:04 51°28.908 3°10.209 19.90617 0.004317 0.026919  
2001-11-30 11:08:04 51°28.774 3°10.539 20.96407 0.004317 0.026919  
2001-11-30 11:09:04 51°28.642 3°10.875 20.383557 0.004317 0.026918  
2001-11-30 11:10:04 51°28.507 3°11.212 20.225903 0.004317 0.026918  
2001-11-30 11:11:04 51°28.366 3°11.543 20.595569 0.004317 0.026918  
2001-11-30 11:12:04 51°28.226 3°11.876 20.678177 0.004317 0.026918  
2001-11-30 11:13:04 51°28.086 3°12.209 20.255825 0.004317 0.026918  
2001-11-30 11:14:04 51°27.936 3°12.529 20.385891 0.004317 0.026918  
2001-11-30 11:15:04 51°27.779 3°12.842 20.363351 0.004317 0.026918  
2001-11-30 11:16:04 51°27.622 3°13.156 20.645185 0.004317 0.026918  
2001-11-30 11:17:04 51°27.469 3°13.471 20.4404 0.004317 0.026918  
2001-11-30 11:18:04 51°27.317 3°13.783 20.008607 0.004317 0.026918  
2001-11-30 11:19:04 51°27.167 3°14.094 20.84854 0.004317 0.026918  
2001-11-30 11:20:04 51°27.014 3°14.403 20.193224 0.004317 0.026918  
2001-11-30 11:21:04 51°26.864 3°14.712 20.173085 0.004317 0.026918  
2001-11-30 11:22:04 51°26.714 3°15.022 20.480158 0.004317 0.026919  
2001-11-30 11:23:04 51°26.565 3°15.331 19.985096 0.004317 0.026919  
2001-11-30 11:24:04 51°26.416 3°15.637 20.036963 0.004317 0.026919  
2001-11-30 11:25:04 51°26.267 3°15.942 20.442008 0.004317 0.026919  
2001-11-30 11:26:04 51°26.117 3°16.251 20.325258 0.004317 0.026919  
2001-11-30 11:27:03 51°25.98 3°16.544 20.630549 0.004317 0.026919  
2001-11-30 11:28:04 51°25.86 3°16.808 20.566232 0.004317 0.026919  
2001-11-30 11:29:04 51°25.776 3°17.014 20.846021 0.004317 0.026919  
2001-11-30 11:30:04 51°25.715 3°17.185 20.890428 0.004317 0.026919  
2001-11-30 11:31:04 51°25.65 3°17.367 20.794585 0.004317 0.026919  
2001-11-30 11:32:04 51°25.554 3°17.579 20.288313 0.004317 0.026919  
2001-11-30 11:33:04 51°25.437 3°17.805 20.758686 0.004317 0.026919  
2001-11-30 11:34:04 51°25.302 3°18.07 20.906449 0.004317 0.026919  
2001-11-30 11:35:04 51°25.141 3°18.37 20.818988 0.004317 0.026919  
2001-11-30 11:36:04 51°24.976 3°18.679 20.99053 0.004317 0.026919  
2001-11-30 11:37:03 51°24.812 3°18.985 21.356115 0.004317 0.026919  
2001-11-30 11:38:04 51°24.641 3°19.305 20.642739 0.004317 0.026919  
2001-11-30 11:39:04 51°24.474 3°19.627 21.371674 0.004317 0.026919  
2001-11-30 11:40:04 51°24.302 3°19.935 21.022563 0.004317 0.026919  
2001-11-30 11:41:04 51°24.095 3°20.063 20.33871 0.004317 0.026919  
2001-11-30 11:42:04 51°23.958 3°19.889 21.215731 0.004317 0.026919  
2001-11-30 11:43:04 51°23.853 3°19.65 20.891826 0.004317 0.026919  
2001-11-30 11:44:04 51°23.75 3°19.405 20.608007 0.004317 0.026919  
2001-11-30 11:45:04 51°23.66 3°19.15 21.045571 0.004317 0.026919  
2001-11-30 11:46:04 51°23.568 3°18.895 20.531663 0.004317 0.026919  
2001-11-30 11:47:04 51°23.475 3°18.638 20.443657 0.004317 0.026919  
2001-11-30 11:48:04 51°23.388 3°18.38 20.78078 0.004317 0.026919  
2001-11-30 11:49:04 51°23.321 3°18.113 21.052747 0.004317 0.026919  
2001-11-30 11:50:04 51°23.266 3°17.838 20.869527 0.004317 0.026919  
2001-11-30 11:51:04 51°23.221 3°17.56 20.648634 0.004317 0.026919  
2001-11-30 11:52:04 51°23.178 3°17.277 20.562218 0.004317 0.026919  
2001-11-30 11:53:04 51°23.141 3°16.992 20.770174 0.004317 0.026919  
2001-11-30 11:54:04 51°23.104 3°16.707 20.616671 0.004317 0.026919  
2001-11-30 11:55:04 51°23.067 3°16.424 20.691601 0.004317 0.026919  
2001-11-30 11:56:04 51°23.028 3°16.145 20.997512 0.004317 0.026919  
2001-11-30 11:57:04 51°22.99 3°15.867 20.647631 0.004317 0.026919  
2001-11-30 11:58:03 51°22.954 3°15.593 20.260542 0.004317 0.026919  
2001-11-30 11:59:04 51°22.921 3°15.308 20.73234 0.004317 0.026919  
2001-11-30 12:00:04 51°22.889 3°15.025 20.74115 0.004317 0.026919  
2001-11-30 12:01:04 51°22.855 3°14.74 20.519614 0.004317 0.026919  
2001-11-30 12:02:03 51°22.823 3°14.455 20.726774 0.004317 0.026919  
2001-11-30 12:03:03 51°22.79 3°14.169 20.671083 0.004317 0.026919  
2001-11-30 12:04:03 51°22.757 3°13.883 20.678417 0.004317 0.026919  
2001-11-30 12:05:03 51°22.718 3°13.599 20.687995 0.004317 0.026919  
2001-11-30 12:06:03 51°22.686 3°13.307 20.924982 0.004317 0.026919  
2001-11-30 12:07:03 51°22.654 3°13.013 21.030339 0.004317 0.026919  
2001-11-30 12:08:03 51°22.616 3°12.72 20.908366 0.004317 0.026919  
2001-11-30 12:09:03 51°22.585 3°12.425 20.523389 0.004317 0.026919  
2001-11-30 12:10:03 51°22.55 3°12.128 21.090968 0.004317 0.026919  
2001-11-30 12:11:03 51°22.516 3°11.829 20.738627 0.004317 0.026919  
2001-11-30 12:12:03 51°22.48 3°11.529 20.384321 0.004317 0.026919  
2001-11-30 12:13:04 51°22.445 3°11.226 20.688396 0.004317 0.026919  
2001-11-30 12:14:04 51°22.41 3°10.924 20.597254 0.004317 0.026919  
2001-11-30 12:15:03 51°22.373 3°10.624 20.539654 0.004317 0.026919  
2001-11-30 12:16:03 51°22.332 3°10.313 20.874962 0.004317 0.026919  
2001-11-30 12:17:03 51°22.295 3°10.004 20.948621 0.004317 0.026919  
2001-11-30 12:18:03 51°22.256 3°9.699 20.429903 0.004317 0.026919  
2001-11-30 12:19:03 51°22.215 3°9.393 20.831066 0.004317 0.026919  
2001-11-30 12:20:03 51°22.174 3°9.09 20.74127 0.004317 0.026919  
2001-11-30 12:21:03 51°22.13 3°8.789 20.911042 0.004317 0.02692  
2001-11-30 12:22:03 51°22.086 3°8.488 20.459578 0.004317 0.02692  
2001-11-30 12:23:03 51°22.042 3°8.184 21.120925 0.004317 0.02692  
2001-11-30 12:24:03 51°21.996 3°7.88 20.473326 0.004317 0.02692  
2001-11-30 12:25:03 51°21.952 3°7.581 21.006089 0.004317 0.02692  
2001-11-30 12:26:04 51°21.906 3°7.275 21.144778 0.004317 0.02692  
2001-11-30 12:27:03 51°21.864 3°6.98 20.661021 0.004317 0.02692  
2001-11-30 12:28:03 51°21.822 3°6.677 21.029223 0.004317 0.02692  
2001-11-30 12:29:03 51°21.78 3°6.376 20.739068 0.004317 0.02692  
2001-11-30 12:30:03 51°21.736 3°6.071 21.137213 0.004317 0.02692  
2001-11-30 12:31:03 51°21.693 3°5.765 20.784062 0.004317 0.02692  
2001-11-30 12:32:03 51°21.65 3°5.461 20.594486 0.004317 0.02692  
2001-11-30 12:33:03 51°21.606 3°5.161 20.698293 0.004317 0.02692  
2001-11-30 12:34:03 51°21.564 3°4.863 20.771935 0.004317 0.02692  
2001-11-30 12:35:03 51°21.522 3°4.566 20.939877 0.004317 0.02692  
2001-11-30 12:36:04 51°21.48 3°4.263 21.143862 0.004317 0.02692  
2001-11-30 12:37:03 51°21.438 3°3.969 21.150113 0.004317 0.02692  
2001-11-30 12:38:04 51°21.395 3°3.662 21.253864 0.004317 0.026921  
2001-11-30 12:39:04 51°21.353 3°3.356 20.832586 0.004317 0.026921  
2001-11-30 12:40:04 51°21.311 3°3.049 20.907168 0.004317 0.026921  
2001-11-30 12:41:03 51°21.272 3°2.758 20.719084 0.004317 0.026921  
2001-11-30 12:42:04 51°21.177 3°2.506 21.276281 0.004317 0.026921  
2001-11-30 12:43:04 51°21.066 3°2.259 20.333233 0.004317 0.026921  
2001-11-30 12:44:03 51°20.941 3°2.031 20.761328 0.004317 0.026921  
2001-11-30 12:45:04 51°20.817 3°1.788 21.356154 0.004317 0.026921  
2001-11-30 12:46:04 51°20.692 3°1.548 21.099694 0.004317 0.026921  
2001-11-30 12:47:04 51°20.57 3°1.305 21.199819 0.004317 0.026921  
2001-11-30 12:48:03 51°20.452 3°1.066 20.817468 0.004317 0.026921  
2001-11-30 12:49:03 51°20.331 3°0.82 21.37465 0.004317 0.026921  
2001-11-30 12:50:03 51°20.21 3°0.57 21.475895 0.004317 0.026921  
2001-11-30 12:51:04 51°20.085 3°0.314 21.142389 0.004317 0.026921  
2001-11-30 12:52:04 51°19.962 3°0.064 21.060521 0.004317 0.026921  
2001-11-30 12:53:04 51°19.84 2°59.817 21.226708 0.004317 0.026921  
2001-11-30 12:54:04 51°19.726 2°59.562 21.391475 0.004317 0.026921  
2001-11-30 12:55:04 51°19.625 2°59.288 21.06367 0.004317 0.026921  
2001-11-30 12:56:03 51°19.547 2°59.001 20.879159 0.004317 0.026921  
2001-11-30 12:57:03 51°19.471 2°58.71 20.947104 0.004317 0.026921  
2001-11-30 12:58:04 51°19.398 2°58.41 20.947304 0.004317 0.026921  
2001-11-30 12:59:04 51°19.327 2°58.113 20.823708 0.004317 0.026921  
2001-11-30 13:00:03 51°19.261 2°57.818 20.268524 0.004317 0.026921  
2001-11-30 13:01:03 51°19.195 2°57.515 20.928337 0.004317 0.026921  
2001-11-30 13:02:04 51°19.124 2°57.209 21.189753 0.004317 0.026921  
2001-11-30 13:03:04 51°19.053 2°56.906 21.146768 0.004317 0.026921  
2001-11-30 13:04:03 51°18.984 2°56.607 20.944589 0.004317 0.026921  
2001-11-30 13:05:04 51°18.913 2°56.294 21.200257 0.004317 0.026921  
2001-11-30 13:06:04 51°18.843 2°55.988 21.490715 0.004317 0.026921  
2001-11-30 13:07:04 51°18.781 2°55.677 20.552061 0.004317 0.026921  
2001-11-30 13:08:04 51°18.719 2°55.367 20.883275 0.004317 0.026921  
2001-11-30 13:09:04 51°18.658 2°55.058 20.788183 0.004317 0.026921  
2001-11-30 13:10:04 51°18.597 2°54.75 20.758206 0.004317 0.026921  
2001-11-30 13:11:04 51°18.537 2°54.443 21.118416 0.004317 0.026921  
2001-11-30 13:12:04 51°18.476 2°54.134 21.478946 0.004317 0.026922  
2001-11-30 13:13:04 51°18.414 2°53.826 20.730098 0.004317 0.026922  
2001-11-30 13:14:03 51°18.356 2°53.524 20.993083 0.004317 0.026922  
2001-11-30 13:15:04 51°18.294 2°53.211 21.061318 0.004317 0.026922  
2001-11-30 13:16:04 51°18.233 2°52.901 20.835305 0.004317 0.026922  
2001-11-30 13:17:04 51°18.171 2°52.595 21.035643 0.004317 0.026922  
2001-11-30 13:18:04 51°18.019 2°52.416 20.835025 0.004317 0.026922  
2001-11-30 13:19:04 51°17.82 2°52.369 20.797266 0.004317 0.026922  
2001-11-30 13:20:04 51°17.614 2°52.383 21.059564 0.004317 0.026922  
2001-11-30 13:21:04 51°17.409 2°52.432 21.120487 0.004317 0.026922  
2001-11-30 13:22:04 51°17.223 2°52.59 20.67004 0.004317 0.026922  
2001-11-30 13:23:04 51°17.031 2°52.734 20.97341 0.004317 0.026922  
2001-11-30 13:24:04 51°16.835 2°52.853 20.873644 0.004317 0.026921  
2001-11-30 13:25:04 51°16.637 2°52.982 21.457425 0.004317 0.026922  
2001-11-30 13:26:04 51°16.443 2°53.129 21.10053 0.004317 0.026922  
2001-11-30 13:27:04 51°16.249 2°53.286 20.90541 0.004317 0.026922  
2001-11-30 13:28:04 51°16.054 2°53.441 21.454452 0.004317 0.026923  
2001-11-30 13:29:04 51°15.856 2°53.587 21.138965 0.004317 0.026923  
2001-11-30 13:30:04 51°15.66 2°53.739 20.676493 0.004317 0.026923  
2001-11-30 13:31:04 51°15.467 2°53.904 21.191584 0.004317 0.026923  
2001-11-30 13:32:04 51°15.275 2°54.068 20.824507 0.004317 0.026923  
2001-11-30 13:33:04 51°15.084 2°54.249 21.163806 0.004317 0.026923  
2001-11-30 13:34:04 51°14.9 2°54.444 21.298493 0.004317 0.026923  
2001-11-30 13:35:04 51°14.718 2°54.651 21.269008 0.004317 0.026923  
2001-11-30 13:36:04 51°14.541 2°54.856 20.98211 0.004317 0.026924  
2001-11-30 13:37:04 51°14.372 2°55.059 21.173796 0.004317 0.026924  
2001-11-30 13:38:04 51°14.231 2°55.307 20.727815 0.004317 0.026924  
2001-11-30 13:39:03 51°14.114 2°55.419 21.406471 0.004317 0.026924  
2001-11-30 13:40:04 51°14.039 2°55.474 21.802598 0.004317 0.026924  
2001-11-30 13:41:04 51°13.982 2°55.515 21.449378 0.004317 0.026924  
2001-11-30 13:42:04 51°13.927 2°55.558 22.071321 0.004317 0.026924  
2001-11-30 13:43:04 51°13.843 2°55.619 22.210267 0.004317 0.026924  
2001-11-30 13:44:04 51°13.774 2°55.692 21.785949 0.004317 0.026924  
2001-11-30 13:45:03 51°13.743 2°55.749 21.637872 0.004317 0.026924  
2001-11-30 13:46:04 51°13.72 2°55.797 22.09584 0.004317 0.026924  
2001-11-30 13:47:03 51°13.702 2°55.84 21.842823 0.004317 0.026923  
2001-11-30 13:48:04 51°13.69 2°55.899 21.498519 0.004317 0.026923  
2001-11-30 14:10:53 51°13.688 2°55.907 19.791815 0.004218 0.026523  
2001-11-30 14:11:54 51°13.689 2°55.906 19.787025 0.004218 0.026524  
2001-11-30 14:12:54 51°13.69 2°55.906 19.789217 0.004218 0.026524  
2001-11-30 14:13:54 51°13.69 2°55.907 19.788608 0.004218 0.026524  
2001-11-30 14:14:54 51°13.69 2°55.907 19.788771 0.004317 0.026925  
2001-11-30 14:15:54 51°13.689 2°55.906 19.789136 0.004218 0.026524  
2001-11-30 14:16:54 51°13.689 2°55.906 19.787634 0.004218 0.026525  
2001-11-30 14:17:54 51°13.689 2°55.906 19.788608 0.004218 0.026525  
2001-11-30 14:18:54 51°13.689 2°55.906 19.786051 0.004218 0.026525  
2001-11-30 14:19:54 51°13.689 2°55.906 19.780369 0.004218 0.026525  
2001-11-30 14:20:54 51°13.689 2°55.907 19.781262 0.004218 0.026526  
2001-11-30 14:21:54 51°13.687 2°55.906 19.781221 0.004218 0.026526  
2001-11-30 14:22:54 51°13.687 2°55.906 19.777162 0.004218 0.026526  
2001-11-30 14:23:54 51°13.687 2°55.906 19.774767 0.004218 0.026527  
2001-11-30 14:24:54 51°13.687 2°55.906 19.769692 0.004218 0.026527  
2001-11-30 14:25:54 51°13.687 2°55.907 19.762263 0.004218 0.026528  
2001-11-30 14:26:54 51°13.688 2°55.907 19.76007 0.004218 0.026528  
2001-11-30 14:27:54 51°13.688 2°55.906 19.76543 0.004218 0.026528  
2001-11-30 14:28:54 51°13.688 2°55.906 19.759461 0.004218 0.026529  
2001-11-30 14:29:54 51°13.688 2°55.906 19.756132 0.004218 0.026529  
2001-11-30 14:30:54 51°13.688 2°55.906 19.758 0.004218 0.02653  
2001-11-30 14:31:54 51°13.688 2°55.906 19.75735 0.004218 0.02653  
2001-11-30 14:32:54 51°13.688 2°55.907 19.743177 0.004218 0.02653  
2001-11-30 14:33:54 51°13.688 2°55.907 19.73741 0.004218 0.026531  
2001-11-30 14:34:54 51°13.688 2°55.907 19.735907 0.004218 0.026531  
2001-11-30 14:35:54 51°13.688 2°55.907 19.734526 0.004218 0.026531  
2001-11-30 14:36:54 51°13.688 2°55.907 19.731643 0.004218 0.026532  
2001-11-30 14:37:54 51°13.688 2°55.907 19.728677 0.004218 0.026532  
2001-11-30 14:38:54 51°13.688 2°55.907 19.723234 0.004218 0.026533  
2001-11-30 14:39:54 51°13.688 2°55.907 19.721731 0.004218 0.026533  
2001-11-30 14:40:54 51°13.689 2°55.907 19.714662 0.004218 0.026533  
2001-11-30 14:41:54 51°13.689 2°55.907 19.718684 0.004218 0.026534  
2001-11-30 14:42:54 51°13.688 2°55.907 19.707145 0.004218 0.026534  
2001-11-30 14:43:54 51°13.688 2°55.907 19.696701 0.004218 0.026535  
2001-11-30 14:44:54 51°13.688 2°55.907 19.70174 0.004218 0.026535  
2001-11-30 14:45:54 51°13.688 2°55.907 19.688654 0.004218 0.026535  
2001-11-30 14:46:54 51°13.688 2°55.907 19.681541 0.004218 0.026536  
2001-11-30 14:47:54 51°13.688 2°55.907 19.679102 0.004218 0.026536  
2001-11-30 14:48:54 51°13.688 2°55.907 19.670565 0.004218 0.026537  
2001-11-30 14:49:54 51°13.688 2°55.906 19.667028 0.004218 0.026537  
2001-11-30 14:50:53 51°13.689 2°55.907 19.660198 0.004218 0.026538  
2001-11-30 14:51:53 51°13.688 2°55.907 19.654301 0.004218 0.026538  
2001-11-30 14:52:54 51°13.688 2°55.906 19.658368 0.004218 0.026538  
2001-11-30 14:53:53 51°13.688 2°55.907 19.655806 0.004218 0.026539  
2001-11-30 14:54:53 51°13.688 2°55.906 19.639376 0.004218 0.026539  
2001-11-30 14:55:53 51°13.688 2°55.906 19.64324 0.004218 0.02654  
2001-11-30 14:56:54 51°13.688 2°55.907 19.632868 0.004218 0.02654